Time;durP1;ratioP1;P1;durP2;ratioP2;P2;SDS_P1;SDS_P2;PMS_P1;PMS_P2;Temp;Humidity;BMP_temperature;BMP_pressure;BME280_temperature;BME280_humidity;BME280_pressure;Samples;Min_cycle;Max_cycle;Signal;HPM_P1;HPM_P2
2023/04/07 00:00:29;;;;;;;;;;;3.70;99.90;;;;;;5077277;28;19959;-57
2023/04/07 00:02:55;;;;;;;;;;;3.70;99.90;;;;;;5076947;28;20009;-57
2023/04/07 00:05:21;;;;;;;;;;;3.60;99.90;;;;;;5077135;28;19908;-57
2023/04/07 00:07:47;;;;;;;;;;;3.50;99.90;;;;;;5077218;28;19959;-57
2023/04/07 00:10:13;;;;;;;;;;;3.60;99.90;;;;;;5059392;28;19942;-57
2023/04/07 00:12:39;;;;;;;;;;;3.70;99.90;;;;;;5076890;28;20377;-57
2023/04/07 00:15:05;;;;;;;;;;;3.70;99.90;;;;;;5076998;28;20278;-57
2023/04/07 00:17:31;;;;;;;;;;;3.60;99.90;;;;;;5077051;28;19991;-56
2023/04/07 00:19:56;;;;;;;;;;;3.70;99.90;;;;;;5076854;28;19977;-57
2023/04/07 00:22:23;;;;;;;;;;;3.70;99.90;;;;;;5076808;28;19916;-57
2023/04/07 00:24:48;;;;;;;;;;;3.80;99.90;;;;;;5076999;28;20080;-57
2023/04/07 00:27:14;;;;;;;;;;;3.80;99.90;;;;;;5076927;28;19973;-57
2023/04/07 00:29:42;;;;;;;;;;;3.70;99.90;;;;;;5076690;28;19913;-57
2023/04/07 00:32:08;;;;;;;;;;;3.60;99.90;;;;;;5077140;28;19919;-57
2023/04/07 00:34:34;;;;;;;;;;;3.50;99.90;;;;;;5076619;28;19942;-57
2023/04/07 00:37:00;;;;;;;;;;;3.60;99.90;;;;;;5076618;28;19920;-57
2023/04/07 00:39:26;;;;;;;;;;;3.60;99.90;;;;;;5076760;28;19912;-57
2023/04/07 00:41:52;;;;;;;;;;;3.70;99.90;;;;;;5076477;28;20379;-57
2023/04/07 00:44:18;;;;;;;;;;;3.70;99.90;;;;;;5076516;28;20626;-57
2023/04/07 00:46:45;;;;;;;;;;;3.60;99.90;;;;;;5076517;28;19946;-57
2023/04/07 00:49:12;;;;;;;;;;;3.60;99.90;;;;;;5058320;28;19972;-57
2023/04/07 00:51:37;;;;;;;;;;;3.60;99.90;;;;;;5076369;28;20007;-57
2023/04/07 00:54:03;;;;;;;;;;;3.60;99.90;;;;;;5058327;28;20405;-57
2023/04/07 00:56:29;;;;;;;;;;;3.70;99.90;;;;;;5076258;28;19913;-57
2023/04/07 00:58:55;;;;;;;;;;;3.70;99.90;;;;;;5058182;28;19919;-56
2023/04/07 01:01:23;;;;;;;;;;;3.70;99.90;;;;;;5058301;28;20324;-56
2023/04/07 01:03:52;;;;;;;;;;;3.80;99.90;;;;;;5058057;28;20023;-56
2023/04/07 01:06:19;;;;;;;;;;;3.90;99.90;;;;;;5057954;28;19916;-56
2023/04/07 01:08:48;;;;;;;;;;;3.90;99.90;;;;;;5057833;28;20357;-56
2023/04/07 01:11:17;;;;;;;;;;;3.80;99.90;;;;;;5057685;28;19916;-56
2023/04/07 01:13:44;;;;;;;;;;;3.80;99.90;;;;;;5075884;28;20206;-56
2023/04/07 01:16:21;;;;;;;;;;;3.80;99.90;;;;;;5057934;28;20385;-56
2023/04/07 01:18:51;;;;;;;;;;;3.80;99.90;;;;;;5057961;28;20269;-56
2023/04/07 01:21:17;;;;;;;;;;;3.80;99.90;;;;;;5075781;28;20316;-56
2023/04/07 01:23:46;;;;;;;;;;;3.80;99.90;;;;;;5057765;28;19912;-56
2023/04/07 01:26:20;;;;;;;;;;;3.80;99.90;;;;;;5057718;28;20011;-56
2023/04/07 01:28:52;;;;;;;;;;;3.80;99.90;;;;;;5075334;28;19969;-56
2023/04/07 01:31:19;;;;;;;;;;;3.90;99.90;;;;;;5075645;28;19916;-56
2023/04/07 01:33:46;;;;;;;;;;;3.90;99.90;;;;;;5075428;28;19993;-56
2023/04/07 01:36:13;;;;;;;;;;;3.90;99.90;;;;;;5075735;28;19919;-56
2023/04/07 01:38:39;;;;;;;;;;;3.80;99.90;;;;;;5075542;28;19908;-56
2023/04/07 01:41:06;;;;;;;;;;;3.90;99.90;;;;;;5057293;28;19920;-56
2023/04/07 01:43:32;;;;;;;;;;;3.90;99.90;;;;;;5075464;28;20335;-56
2023/04/07 01:45:58;;;;;;;;;;;3.90;99.90;;;;;;5075425;28;19923;-56
2023/04/07 01:48:24;;;;;;;;;;;3.90;99.90;;;;;;5057411;28;19966;-56
2023/04/07 01:50:50;;;;;;;;;;;3.90;99.90;;;;;;5075507;28;19919;-56
2023/04/07 01:53:16;;;;;;;;;;;3.90;99.90;;;;;;5057094;28;19970;-56
2023/04/07 01:55:42;;;;;;;;;;;4.10;99.90;;;;;;5075288;28;19912;-56
2023/04/07 01:58:08;;;;;;;;;;;4.00;99.90;;;;;;5057197;28;20390;-56
2023/04/07 02:00:38;;;;;;;;;;;4.00;99.90;;;;;;5057131;28;19912;-56
2023/04/07 02:03:19;;;;;;;;;;;4.00;99.90;;;;;;5057178;28;19913;-56
2023/04/07 02:05:51;;;;;;;;;;;4.00;99.90;;;;;;5056919;28;20447;-56
2023/04/07 02:08:18;;;;;;;;;;;4.00;99.90;;;;;;5056770;28;19913;-56
2023/04/07 02:10:46;;;;;;;;;;;3.90;99.90;;;;;;5057002;28;19916;-56
2023/04/07 02:13:14;;;;;;;;;;;3.90;99.90;;;;;;5074980;28;19912;-56
2023/04/07 02:15:40;;;;;;;;;;;3.90;99.90;;;;;;5074985;28;20288;-56
2023/04/07 02:18:09;;;;;;;;;;;3.90;99.90;;;;;;5074915;28;20320;-56
2023/04/07 02:20:36;;;;;;;;;;;4.00;99.90;;;;;;5056517;28;19916;-56
2023/04/07 02:23:02;;;;;;;;;;;3.90;99.90;;;;;;5074426;28;19916;-56
2023/04/07 02:25:29;;;;;;;;;;;4.00;99.90;;;;;;5056760;28;19928;-56
2023/04/07 02:27:55;;;;;;;;;;;4.10;99.90;;;;;;5075096;28;19951;-56
2023/04/07 02:30:21;;;;;;;;;;;4.10;99.90;;;;;;5056669;28;19908;-56
2023/04/07 02:32:47;;;;;;;;;;;4.20;99.90;;;;;;5056674;28;19939;-56
2023/04/07 02:35:14;;;;;;;;;;;4.10;99.90;;;;;;5056784;28;19917;-56
2023/04/07 02:37:40;;;;;;;;;;;4.10;99.90;;;;;;5074929;28;19912;-56
2023/04/07 02:40:06;;;;;;;;;;;4.20;99.90;;;;;;5056563;28;19923;-56
2023/04/07 02:42:32;;;;;;;;;;;4.20;99.90;;;;;;5074679;28;19999;-56
2023/04/07 02:44:57;;;;;;;;;;;4.20;99.90;;;;;;5074645;28;19993;-56
2023/04/07 02:47:24;;;;;;;;;;;4.30;99.90;;;;;;5056831;28;19912;-56
2023/04/07 02:49:50;;;;;;;;;;;4.30;99.90;;;;;;5056579;28;19920;-56
2023/04/07 02:52:16;;;;;;;;;;;4.30;99.90;;;;;;5074727;28;19912;-56
2023/04/07 02:54:42;;;;;;;;;;;4.20;99.90;;;;;;5074434;28;19927;-56
2023/04/07 02:57:09;;;;;;;;;;;4.20;99.90;;;;;;5056324;28;20370;-56
2023/04/07 02:59:35;;;;;;;;;;;4.30;99.90;;;;;;5056626;28;19962;-56
2023/04/07 03:02:01;;;;;;;;;;;4.30;99.90;;;;;;5056612;28;19916;-56
2023/04/07 03:04:28;;;;;;;;;;;4.30;99.90;;;;;;5074473;28;20010;-56
2023/04/07 03:06:56;;;;;;;;;;;4.30;99.90;;;;;;5056260;28;19950;-56
2023/04/07 03:09:22;;;;;;;;;;;4.20;99.90;;;;;;5074308;28;19912;-56
2023/04/07 03:11:48;;;;;;;;;;;4.20;99.90;;;;;;5074474;28;20441;-56
2023/04/07 03:14:15;;;;;;;;;;;4.20;99.90;;;;;;5074423;28;20126;-57
2023/04/07 03:16:46;;;;;;;;;;;4.30;99.90;;;;;;5056306;28;19936;-56
2023/04/07 03:19:13;;;;;;;;;;;4.30;99.90;;;;;;5056215;28;19917;-56
2023/04/07 03:21:43;;;;;;;;;;;4.30;99.90;;;;;;5056358;28;20370;-56
2023/04/07 03:24:09;;;;;;;;;;;4.40;99.90;;;;;;5074370;28;20012;-56
2023/04/07 03:26:34;;;;;;;;;;;4.50;99.90;;;;;;5074317;28;20339;-56
2023/04/07 03:29:03;;;;;;;;;;;4.50;99.90;;;;;;5073949;28;19919;-56
2023/04/07 03:31:30;;;;;;;;;;;4.60;99.90;;;;;;5056254;28;19917;-56
2023/04/07 03:33:56;;;;;;;;;;;4.70;99.90;;;;;;5059010;28;19931;-56
2023/04/07 03:36:23;;;;;;;;;;;4.80;99.90;;;;;;5059805;28;19916;-56
2023/04/07 03:38:49;;;;;;;;;;;4.80;99.90;;;;;;5077862;28;19959;-56
2023/04/07 03:41:17;;;;;;;;;;;4.90;99.90;;;;;;5059530;28;19923;-57
2023/04/07 03:43:42;;;;;;;;;;;4.90;99.90;;;;;;5077679;28;19912;-56
2023/04/07 03:46:09;;;;;;;;;;;5.00;99.90;;;;;;5059723;28;19920;-56
2023/04/07 03:48:35;;;;;;;;;;;5.00;99.90;;;;;;5059461;28;19913;-56
2023/04/07 03:51:10;;;;;;;;;;;5.00;99.90;;;;;;5077622;28;20003;-56
2023/04/07 03:53:37;;;;;;;;;;;5.10;99.90;;;;;;5059311;28;19921;-56
2023/04/07 03:56:14;;;;;;;;;;;5.20;99.90;;;;;;5059532;28;19950;-56
2023/04/07 03:58:47;;;;;;;;;;;5.10;99.90;;;;;;5059322;28;19968;-56
2023/04/07 04:01:20;;;;;;;;;;;5.20;99.90;;;;;;5059377;28;19917;-57
2023/04/07 04:03:49;;;;;;;;;;;5.20;99.90;;;;;;5059265;28;19916;-57
2023/04/07 04:06:26;;;;;;;;;;;5.20;99.90;;;;;;5059036;28;19916;-56
2023/04/07 04:08:58;;;;;;;;;;;5.30;99.90;;;;;;5059245;28;19916;-56
2023/04/07 04:11:25;;;;;;;;;;;5.20;99.90;;;;;;5058944;28;19944;-56
2023/04/07 04:14:01;;;;;;;;;;;5.30;99.90;;;;;;5059064;28;19908;-56
2023/04/07 04:16:27;;;;;;;;;;;5.30;99.90;;;;;;5059079;28;20308;-56
2023/04/07 04:18:56;;;;;;;;;;;5.30;99.90;;;;;;5058830;28;19957;-57
2023/04/07 04:21:25;;;;;;;;;;;5.40;99.90;;;;;;5058885;28;19923;-57
2023/04/07 04:23:51;;;;;;;;;;;5.50;99.90;;;;;;5058913;28;20069;-56
2023/04/07 04:26:17;;;;;;;;;;;5.50;99.90;;;;;;5058952;28;19917;-57
2023/04/07 04:28:44;;;;;;;;;;;5.50;99.90;;;;;;5058921;28;20362;-57
2023/04/07 04:31:11;;;;;;;;;;;5.50;99.90;;;;;;5058565;28;19966;-57
2023/04/07 04:33:41;;;;;;;;;;;5.50;99.90;;;;;;5058934;28;19913;-56
2023/04/07 04:36:07;;;;;;;;;;;5.40;99.90;;;;;;5058854;28;19926;-57
2023/04/07 04:38:33;;;;;;;;;;;5.40;99.90;;;;;;5076592;28;19974;-57
2023/04/07 04:41:28;;;;;;;;;;;5.40;99.90;;;;;;5063856;28;19924;-56
2023/04/07 04:43:55;;;;;;;;;;;5.50;99.90;;;;;;5057925;28;19939;-57
2023/04/07 04:46:23;;;;;;;;;;;5.50;99.90;;;;;;5058708;28;19919;-56
2023/04/07 04:48:50;;;;;;;;;;;5.60;99.90;;;;;;5058534;28;19908;-56
2023/04/07 04:51:19;;;;;;;;;;;5.60;99.90;;;;;;5058585;28;19919;-56
2023/04/07 04:53:49;;;;;;;;;;;5.70;99.90;;;;;;5058149;28;19935;-57
2023/04/07 04:56:15;;;;;;;;;;;5.70;99.90;;;;;;5058244;28;19921;-56
2023/04/07 04:58:45;;;;;;;;;;;5.70;99.90;;;;;;5058408;28;19920;-56
2023/04/07 05:01:15;;;;;;;;;;;5.80;99.90;;;;;;5058050;28;19977;-56
2023/04/07 05:03:49;;;;;;;;;;;5.70;99.90;;;;;;5058286;28;20305;-57
2023/04/07 05:06:20;;;;;;;;;;;5.80;99.90;;;;;;5058118;28;19916;-56
2023/04/07 05:08:49;;;;;;;;;;;5.80;99.90;;;;;;5075725;28;19932;-56
2023/04/07 05:11:18;;;;;;;;;;;5.70;99.90;;;;;;5058098;28;19991;-57
2023/04/07 05:13:48;;;;;;;;;;;5.70;99.90;;;;;;5057974;28;19922;-57
2023/04/07 05:16:14;;;;;;;;;;;5.80;99.90;;;;;;5075869;28;19955;-56
2023/04/07 05:18:40;;;;;;;;;;;5.80;99.90;;;;;;5057678;28;20273;-57
2023/04/07 05:21:07;;;;;;;;;;;5.90;99.90;;;;;;5057791;28;20289;-56
2023/04/07 05:23:35;;;;;;;;;;;5.90;99.90;;;;;;5058528;28;19913;-57
2023/04/07 05:29:51;;;;;;;;;;;6.00;99.90;;;;;;5076623;28;19918;-56
2023/04/07 05:35:44;;;;;;;;;;;6.10;99.90;;;;;;5049632;28;19924;-56
2023/04/07 05:38:11;;;;;;;;;;;6.20;99.90;;;;;;5053953;28;20230;-56
2023/04/07 05:40:39;;;;;;;;;;;6.20;99.90;;;;;;5037084;28;20447;-57
2023/04/07 05:43:07;;;;;;;;;;;6.30;99.90;;;;;;5037344;28;19912;-57
2023/04/07 05:45:33;;;;;;;;;;;6.30;99.90;;;;;;5037230;28;20209;-57
2023/04/07 05:47:59;;;;;;;;;;;6.40;99.90;;;;;;5048706;28;19920;-57
2023/04/07 05:50:34;;;;;;;;;;;6.50;99.90;;;;;;5059523;28;19923;-57
2023/04/07 05:53:04;;;;;;;;;;;6.50;99.90;;;;;;5067855;28;20320;-57
2023/04/07 05:55:30;;;;;;;;;;;6.50;99.90;;;;;;5076022;28;19959;-57
2023/04/07 05:57:57;;;;;;;;;;;6.60;99.90;;;;;;5076874;28;20269;-57
2023/04/07 06:00:26;;;;;;;;;;;6.70;99.90;;;;;;5076560;28;19916;-56
2023/04/07 06:03:02;;;;;;;;;;;6.70;99.90;;;;;;5074888;28;19912;-57
2023/04/07 06:05:33;;;;;;;;;;;6.70;99.90;;;;;;5076177;28;19965;-56
2023/04/07 06:08:00;;;;;;;;;;;6.80;99.90;;;;;;5075902;28;19941;-57
2023/04/07 06:10:28;;;;;;;;;;;6.80;99.90;;;;;;5076587;28;19923;-57
2023/04/07 06:12:53;;;;;;;;;;;6.80;99.90;;;;;;5095042;28;19912;-57
2023/04/07 06:15:20;;;;;;;;;;;6.90;99.90;;;;;;5076765;28;19912;-57
2023/04/07 06:17:46;;;;;;;;;;;6.90;99.90;;;;;;5076801;28;20281;-57
2023/04/07 06:20:11;;;;;;;;;;;6.90;99.90;;;;;;5095381;28;19923;-56
2023/04/07 06:22:38;;;;;;;;;;;7.00;99.90;;;;;;5095730;28;20295;-57
2023/04/07 06:25:06;;;;;;;;;;;7.00;99.90;;;;;;5095629;28;19966;-57
2023/04/07 06:27:32;;;;;;;;;;;7.00;99.90;;;;;;5076872;28;20365;-56
2023/04/07 06:29:58;;;;;;;;;;;7.10;99.90;;;;;;5094415;28;19916;-56
2023/04/07 06:32:24;;;;;;;;;;;7.20;99.90;;;;;;5094752;28;19945;-56
2023/04/07 06:34:50;;;;;;;;;;;7.20;99.90;;;;;;5077133;28;19999;-56
2023/04/07 06:37:16;;;;;;;;;;;7.30;99.90;;;;;;5095436;28;19947;-56
2023/04/07 06:39:42;;;;;;;;;;;7.40;99.90;;;;;;5076572;28;19912;-56
2023/04/07 06:42:08;;;;;;;;;;;7.40;99.90;;;;;;5094785;28;19985;-56
2023/04/07 06:44:38;;;;;;;;;;;7.50;99.90;;;;;;5076689;28;19908;-56
2023/04/07 06:47:04;;;;;;;;;;;7.60;99.90;;;;;;5094855;28;19923;-56
2023/04/07 06:49:30;;;;;;;;;;;7.70;99.90;;;;;;5094721;28;19955;-56
2023/04/07 06:51:56;;;;;;;;;;;7.80;99.90;;;;;;5094944;28;19920;-56
2023/04/07 06:54:21;;;;;;;;;;;7.80;99.90;;;;;;5094272;28;19960;-56
2023/04/07 06:56:47;;;;;;;;;;;7.90;99.90;;;;;;5094711;28;20376;-56
2023/04/07 06:59:13;;;;;;;;;;;8.00;99.90;;;;;;5094640;28;20413;-56
2023/04/07 07:01:39;;;;;;;;;;;8.00;99.90;;;;;;5094421;28;19916;-56
2023/04/07 07:04:05;;;;;;;;;;;8.00;99.90;;;;;;5094649;28;19931;-56
2023/04/07 07:06:31;;;;;;;;;;;8.10;99.90;;;;;;5094888;28;19919;-56
2023/04/07 07:08:57;;;;;;;;;;;8.30;99.90;;;;;;5098196;28;20388;-56
2023/04/07 07:11:23;;;;;;;;;;;8.50;99.90;;;;;;5099368;28;19919;-56
2023/04/07 07:13:49;;;;;;;;;;;8.60;99.90;;;;;;5096602;28;19916;-56
2023/04/07 07:16:15;;;;;;;;;;;8.70;99.90;;;;;;5098412;28;19911;-57
2023/04/07 07:18:41;;;;;;;;;;;8.90;99.90;;;;;;5098122;28;20064;-56
2023/04/07 07:21:07;;;;;;;;;;;8.90;99.90;;;;;;5098086;28;19987;-56
2023/04/07 07:23:33;;;;;;;;;;;8.90;99.90;;;;;;5098877;28;20006;-56
2023/04/07 07:25:59;;;;;;;;;;;8.90;99.90;;;;;;5098802;28;19931;-56
2023/04/07 07:28:25;;;;;;;;;;;9.00;99.90;;;;;;5099065;28;19916;-56
2023/04/07 07:30:51;;;;;;;;;;;9.00;99.90;;;;;;5098420;28;19957;-57
2023/04/07 07:33:16;;;;;;;;;;;8.90;99.90;;;;;;5098403;28;19912;-57
2023/04/07 07:35:42;;;;;;;;;;;9.00;99.90;;;;;;5098535;28;19920;-57
2023/04/07 07:38:08;;;;;;;;;;;9.00;99.90;;;;;;5098690;28;20289;-57
2023/04/07 07:40:34;;;;;;;;;;;8.80;99.90;;;;;;5098605;28;19927;-57
2023/04/07 07:43:00;;;;;;;;;;;8.90;99.90;;;;;;5098527;28;19955;-57
2023/04/07 07:45:25;;;;;;;;;;;8.90;99.90;;;;;;5102597;28;19922;-57
2023/04/07 07:47:51;;;;;;;;;;;8.90;99.90;;;;;;5098158;28;19908;-57
2023/04/07 07:50:17;;;;;;;;;;;9.00;99.90;;;;;;5097777;28;20240;-57
2023/04/07 07:52:43;;;;;;;;;;;8.90;99.90;;;;;;5098172;28;20004;-57
2023/04/07 07:55:09;;;;;;;;;;;9.00;99.90;;;;;;5098073;28;19927;-57
2023/04/07 07:57:35;;;;;;;;;;;9.10;99.90;;;;;;5098100;28;20137;-57
2023/04/07 08:00:02;;;;;;;;;;;9.00;99.90;;;;;;5096148;28;19951;-57
2023/04/07 08:02:38;;;;;;;;;;;9.10;99.90;;;;;;5096860;28;19912;-57
2023/04/07 08:05:04;;;;;;;;;;;9.20;99.90;;;;;;5085103;28;19916;-57
2023/04/07 08:07:31;;;;;;;;;;;9.40;99.90;;;;;;5097008;28;20336;-57
2023/04/07 08:09:56;;;;;;;;;;;9.50;99.90;;;;;;5097758;28;19912;-57
2023/04/07 08:12:22;;;;;;;;;;;9.50;99.90;;;;;;5097832;28;20370;-57
2023/04/07 08:14:49;;;;;;;;;;;9.40;99.90;;;;;;5097635;28;19979;-57
2023/04/07 08:17:15;;;;;;;;;;;9.50;99.90;;;;;;5097640;28;20007;-57
2023/04/07 08:19:41;;;;;;;;;;;9.50;99.90;;;;;;5096622;28;20040;-57
2023/04/07 08:22:07;;;;;;;;;;;9.60;99.90;;;;;;5097325;28;19966;-57
2023/04/07 08:24:33;;;;;;;;;;;9.60;99.90;;;;;;5096969;28;19919;-57
2023/04/07 08:27:00;;;;;;;;;;;9.50;99.90;;;;;;5096506;28;20011;-57
2023/04/07 08:29:25;;;;;;;;;;;9.60;99.90;;;;;;5095293;28;19916;-57
2023/04/07 08:31:51;;;;;;;;;;;9.60;99.90;;;;;;5096801;28;20311;-57
2023/04/07 08:34:19;;;;;;;;;;;9.60;99.90;;;;;;5096466;28;19961;-57
2023/04/07 08:36:45;;;;;;;;;;;9.60;99.90;;;;;;5096352;28;20121;-57
2023/04/07 08:39:11;;;;;;;;;;;9.60;99.90;;;;;;5096353;28;20246;-57
2023/04/07 08:41:38;;;;;;;;;;;9.80;99.90;;;;;;5097095;28;19916;-57
2023/04/07 08:44:05;;;;;;;;;;;9.80;99.90;;;;;;5096916;28;19916;-57
2023/04/07 08:46:32;;;;;;;;;;;9.90;99.90;;;;;;5096776;28;19913;-57
2023/04/07 08:48:58;;;;;;;;;;;9.90;99.90;;;;;;5095001;28;20340;-57
2023/04/07 08:51:28;;;;;;;;;;;9.90;99.90;;;;;;5095418;28;19912;-57
2023/04/07 08:53:56;;;;;;;;;;;9.80;99.90;;;;;;5095104;28;19924;-57
2023/04/07 08:56:23;;;;;;;;;;;9.70;99.90;;;;;;5096329;28;20331;-57
2023/04/07 08:58:52;;;;;;;;;;;9.90;99.90;;;;;;5096252;28;19913;-57
2023/04/07 09:01:19;;;;;;;;;;;9.80;99.90;;;;;;5095854;28;20384;-57
2023/04/07 09:03:45;;;;;;;;;;;10.00;99.90;;;;;;5096006;28;19947;-57
2023/04/07 09:06:11;;;;;;;;;;;10.10;99.90;;;;;;5095826;28;19965;-57
2023/04/07 09:08:36;;;;;;;;;;;10.20;99.90;;;;;;5094936;28;19912;-57
2023/04/07 09:11:02;;;;;;;;;;;10.30;99.90;;;;;;5095635;28;19911;-57
2023/04/07 09:13:30;;;;;;;;;;;10.20;99.90;;;;;;5095140;28;19916;-57
2023/04/07 09:15:56;;;;;;;;;;;10.40;99.90;;;;;;5095658;28;19923;-57
2023/04/07 09:18:22;;;;;;;;;;;10.40;99.90;;;;;;5095151;28;19972;-57
2023/04/07 09:20:55;;;;;;;;;;;10.40;99.90;;;;;;5095341;28;20353;-57
2023/04/07 09:23:34;;;;;;;;;;;10.50;99.90;;;;;;5095565;28;19923;-57
2023/04/07 09:26:19;;;;;;;;;;;10.50;99.90;;;;;;5095578;28;20436;-57
2023/04/07 09:28:46;;;;;;;;;;;10.70;99.90;;;;;;5095249;28;19955;-57
2023/04/07 09:31:12;;;;;;;;;;;10.80;99.90;;;;;;5094335;28;19973;-57
2023/04/07 09:33:37;;;;;;;;;;;11.00;99.90;;;;;;5095747;28;19912;-57
2023/04/07 09:36:05;;;;;;;;;;;10.90;99.90;;;;;;5096282;28;20406;-57
2023/04/07 09:38:34;;;;;;;;;;;10.90;99.90;;;;;;5096152;28;19919;-57
2023/04/07 09:41:09;;;;;;;;;;;10.90;99.90;;;;;;5095791;28;20239;-57
2023/04/07 09:43:37;;;;;;;;;;;10.90;99.90;;;;;;5094391;28;19940;-57
2023/04/07 09:46:21;;;;;;;;;;;10.90;99.90;;;;;;5077817;28;20385;-57
2023/04/07 09:48:47;;;;;;;;;;;10.80;99.90;;;;;;5095162;28;19919;-57
2023/04/07 09:51:16;;;;;;;;;;;10.70;99.90;;;;;;5094759;28;20269;-57
2023/04/07 09:53:43;;;;;;;;;;;10.60;99.90;;;;;;5094582;28;19920;-57
2023/04/07 09:56:10;;;;;;;;;;;10.40;99.90;;;;;;5095751;28;19916;-57
2023/04/07 09:58:41;;;;;;;;;;;10.40;99.90;;;;;;5095983;28;19958;-57
2023/04/07 10:01:11;;;;;;;;;;;10.40;99.90;;;;;;5089139;28;19924;-57
2023/04/07 10:03:37;;;;;;;;;;;10.40;99.90;;;;;;5093496;28;20397;-57
2023/04/07 10:06:05;;;;;;;;;;;10.40;99.90;;;;;;5092923;28;20014;-57
2023/04/07 10:08:32;;;;;;;;;;;10.40;99.90;;;;;;5093604;28;19939;-57
2023/04/07 10:11:03;;;;;;;;;;;10.40;99.90;;;;;;5093712;28;19918;-57
2023/04/07 10:13:29;;;;;;;;;;;10.40;99.90;;;;;;5094074;28;19916;-57
2023/04/07 10:15:56;;;;;;;;;;;10.40;99.90;;;;;;5093829;28;19920;-57
2023/04/07 10:18:25;;;;;;;;;;;10.40;99.90;;;;;;5094654;28;19912;-57
2023/04/07 10:20:51;;;;;;;;;;;10.40;99.90;;;;;;5094338;28;19912;-57
2023/04/07 10:23:20;;;;;;;;;;;10.50;99.90;;;;;;5094636;28;20429;-57
2023/04/07 10:25:48;;;;;;;;;;;10.60;99.90;;;;;;5094748;28;19920;-57
2023/04/07 10:28:15;;;;;;;;;;;10.60;99.90;;;;;;5093246;28;20332;-57
2023/04/07 10:30:41;;;;;;;;;;;10.50;99.90;;;;;;5094609;28;19913;-57
2023/04/07 10:33:07;;;;;;;;;;;10.50;99.90;;;;;;5094123;28;19942;-57
2023/04/07 10:35:51;;;;;;;;;;;10.40;99.90;;;;;;5087756;28;20083;-57
2023/04/07 10:38:17;;;;;;;;;;;10.40;99.90;;;;;;5092787;28;20364;-57
2023/04/07 10:40:43;;;;;;;;;;;10.40;99.90;;;;;;5094553;28;19959;-57
2023/04/07 10:43:10;;;;;;;;;;;10.40;99.90;;;;;;5096624;28;20423;-57
2023/04/07 10:45:45;;;;;;;;;;;10.50;99.90;;;;;;5098627;28;20300;-57
2023/04/07 10:48:12;;;;;;;;;;;10.40;99.90;;;;;;5098974;28;19912;-57
2023/04/07 10:50:37;;;;;;;;;;;10.20;99.90;;;;;;5098649;28;19956;-57
2023/04/07 10:53:09;;;;;;;;;;;10.20;99.90;;;;;;5097552;28;19916;-57
2023/04/07 10:55:43;;;;;;;;;;;10.10;99.90;;;;;;5097874;28;19927;-57
2023/04/07 10:58:12;;;;;;;;;;;10.00;99.90;;;;;;5098715;28;19999;-57
2023/04/07 11:00:38;;;;;;;;;;;10.10;99.90;;;;;;5080265;28;19916;-57
2023/04/07 11:03:14;;;;;;;;;;;10.10;99.90;;;;;;5099089;28;19919;-57
2023/04/07 11:05:41;;;;;;;;;;;10.00;99.90;;;;;;5099003;28;19912;-57
2023/04/07 11:08:06;;;;;;;;;;;10.10;99.90;;;;;;5099036;28;19916;-57
2023/04/07 11:10:33;;;;;;;;;;;10.20;99.90;;;;;;5099065;28;19947;-57
2023/04/07 11:13:03;;;;;;;;;;;10.20;99.90;;;;;;5098812;28;19965;-57
2023/04/07 11:15:29;;;;;;;;;;;10.40;99.90;;;;;;5099009;28;19916;-57
2023/04/07 11:18:10;;;;;;;;;;;10.40;99.90;;;;;;5099030;28;19912;-57
2023/04/07 11:20:56;;;;;;;;;;;10.50;99.90;;;;;;5098054;28;19927;-57
2023/04/07 11:23:22;;;;;;;;;;;10.60;99.90;;;;;;5097958;28;19912;-57
2023/04/07 11:25:49;;;;;;;;;;;10.60;99.90;;;;;;5097923;28;19908;-57
2023/04/07 11:28:15;;;;;;;;;;;10.60;99.90;;;;;;5097348;28;20289;-57
2023/04/07 11:30:45;;;;;;;;;;;10.60;99.90;;;;;;5098014;28;19919;-57
2023/04/07 11:33:15;;;;;;;;;;;10.70;99.90;;;;;;5097685;28;19922;-57
2023/04/07 11:35:48;;;;;;;;;;;10.80;99.90;;;;;;5097725;28;19912;-57
2023/04/07 11:38:13;;;;;;;;;;;11.00;99.90;;;;;;5097934;28;19916;-57
2023/04/07 11:40:39;;;;;;;;;;;10.90;99.90;;;;;;5097588;28;19934;-57
2023/04/07 11:43:18;;;;;;;;;;;11.10;99.90;;;;;;5097565;28;19915;-57
2023/04/07 11:45:44;;;;;;;;;;;11.10;99.90;;;;;;5097603;28;19916;-57
2023/04/07 11:48:30;;;;;;;;;;;11.10;99.90;;;;;;5097711;28;19923;-57
2023/04/07 11:50:56;;;;;;;;;;;11.00;99.90;;;;;;5097033;28;19916;-57
2023/04/07 11:53:32;;;;;;;;;;;10.80;99.90;;;;;;5097051;28;19916;-57
2023/04/07 11:56:02;;;;;;;;;;;10.80;99.90;;;;;;5097457;28;19916;-57
2023/04/07 11:58:28;;;;;;;;;;;10.90;99.90;;;;;;5097633;28;20682;-57
2023/04/07 12:00:55;;;;;;;;;;;11.00;99.90;;;;;;5097238;28;19912;-57
2023/04/07 12:03:21;;;;;;;;;;;11.00;99.90;;;;;;5097251;28;19955;-57
2023/04/07 12:05:47;;;;;;;;;;;11.00;99.90;;;;;;5096953;28;19919;-57
2023/04/07 12:08:14;;;;;;;;;;;10.90;99.90;;;;;;5096925;28;19931;-57
2023/04/07 12:10:40;;;;;;;;;;;10.90;99.90;;;;;;5096924;28;19938;-57
2023/04/07 12:13:07;;;;;;;;;;;10.90;99.90;;;;;;5096727;28;19916;-57
2023/04/07 12:15:33;;;;;;;;;;;10.70;99.90;;;;;;5096936;28;19934;-57
2023/04/07 12:17:59;;;;;;;;;;;10.80;99.90;;;;;;5097042;28;19920;-57
2023/04/07 12:20:25;;;;;;;;;;;10.90;99.90;;;;;;5096575;28;19920;-57
2023/04/07 12:22:51;;;;;;;;;;;10.80;99.90;;;;;;5096938;28;19926;-57
2023/04/07 12:25:17;;;;;;;;;;;10.80;99.90;;;;;;5096751;28;19912;-57
2023/04/07 12:27:43;;;;;;;;;;;10.80;99.90;;;;;;5096710;28;20326;-57
2023/04/07 12:30:09;;;;;;;;;;;10.80;99.90;;;;;;5096909;28;19923;-57
2023/04/07 12:32:36;;;;;;;;;;;10.80;99.90;;;;;;5096701;28;19912;-57
2023/04/07 12:35:02;;;;;;;;;;;10.80;99.90;;;;;;5096406;28;19919;-57
2023/04/07 12:37:28;;;;;;;;;;;10.90;99.90;;;;;;5096827;28;19916;-57
2023/04/07 12:39:54;;;;;;;;;;;10.90;99.90;;;;;;5093491;28;20259;-57
2023/04/07 12:42:20;;;;;;;;;;;10.90;99.90;;;;;;5083482;28;20270;-57
2023/04/07 12:44:45;;;;;;;;;;;11.00;99.90;;;;;;5090457;28;19946;-57
2023/04/07 12:47:11;;;;;;;;;;;11.10;99.90;;;;;;5076306;28;19920;-57
2023/04/07 12:49:37;;;;;;;;;;;11.20;99.90;;;;;;5089550;28;19912;-57
2023/04/07 12:52:05;;;;;;;;;;;11.30;99.90;;;;;;5096501;28;19916;-57
2023/04/07 12:54:31;;;;;;;;;;;11.40;99.90;;;;;;5095946;28;19924;-57
2023/04/07 12:56:57;;;;;;;;;;;11.50;99.90;;;;;;5096218;28;20434;-57
2023/04/07 12:59:23;;;;;;;;;;;11.60;99.90;;;;;;5096288;28;19916;-57
2023/04/07 13:01:52;;;;;;;;;;;11.60;99.90;;;;;;5095489;28;19989;-57
2023/04/07 13:04:25;;;;;;;;;;;11.60;99.90;;;;;;5094545;28;19916;-57
2023/04/07 13:06:50;;;;;;;;;;;11.60;99.90;;;;;;5094557;28;20004;-57
2023/04/07 13:09:16;;;;;;;;;;;11.80;99.90;;;;;;5094457;28;19916;-57
2023/04/07 13:11:42;;;;;;;;;;;11.90;99.90;;;;;;5094496;28;19912;-57
2023/04/07 13:14:11;;;;;;;;;;;11.90;99.90;;;;;;5093793;28;20273;-57
2023/04/07 13:16:37;;;;;;;;;;;12.00;99.90;;;;;;5094919;28;19998;-57
2023/04/07 13:19:04;;;;;;;;;;;11.90;99.90;;;;;;5094673;28;19935;-57
2023/04/07 13:21:29;;;;;;;;;;;11.80;99.90;;;;;;5094348;28;19926;-57
2023/04/07 13:23:55;;;;;;;;;;;11.90;99.90;;;;;;5095589;28;20355;-57
2023/04/07 13:26:21;;;;;;;;;;;11.90;99.90;;;;;;5094847;28;19916;-57
2023/04/07 13:28:47;;;;;;;;;;;11.90;99.90;;;;;;5095011;28;20181;-57
2023/04/07 13:31:14;;;;;;;;;;;12.10;99.90;;;;;;5089494;28;20293;-57
2023/04/07 13:33:40;;;;;;;;;;;12.20;99.90;;;;;;5093606;28;19919;-57
2023/04/07 13:36:06;;;;;;;;;;;12.10;99.90;;;;;;5096075;28;19916;-57
2023/04/07 13:38:32;;;;;;;;;;;12.00;99.90;;;;;;5096112;28;19916;-57
2023/04/07 13:40:58;;;;;;;;;;;12.00;99.90;;;;;;5095547;28;20068;-57
2023/04/07 13:43:24;;;;;;;;;;;12.00;99.90;;;;;;5095740;28;19912;-57
2023/04/07 13:45:50;;;;;;;;;;;11.90;99.90;;;;;;5095840;28;20277;-57
2023/04/07 13:48:16;;;;;;;;;;;11.90;99.90;;;;;;5095442;28;19923;-57
2023/04/07 13:50:42;;;;;;;;;;;11.90;99.90;;;;;;5095953;28;19916;-57
2023/04/07 13:53:07;;;;;;;;;;;11.90;99.90;;;;;;5095317;28;19991;-57
2023/04/07 13:55:33;;;;;;;;;;;12.10;99.90;;;;;;5095375;28;20328;-57
2023/04/07 13:57:59;;;;;;;;;;;12.30;99.90;;;;;;5095528;28;19936;-57
2023/04/07 14:00:25;;;;;;;;;;;12.30;99.90;;;;;;5095452;28;19954;-57
2023/04/07 14:02:50;;;;;;;;;;;12.30;99.90;;;;;;5095348;28;20011;-57
2023/04/07 14:05:16;;;;;;;;;;;12.40;99.90;;;;;;5095139;28;19969;-57
2023/04/07 14:07:42;;;;;;;;;;;12.30;99.90;;;;;;5095368;28;19955;-57
2023/04/07 14:10:08;;;;;;;;;;;12.60;99.90;;;;;;5095260;28;20531;-57
2023/04/07 14:12:34;;;;;;;;;;;12.70;99.90;;;;;;5095279;28;19916;-57
2023/04/07 14:14:59;;;;;;;;;;;12.80;99.90;;;;;;5095162;28;19916;-57
2023/04/07 14:17:26;;;;;;;;;;;12.80;99.90;;;;;;5095284;28;19978;-57
2023/04/07 14:19:52;;;;;;;;;;;12.90;99.90;;;;;;5095274;28;19912;-57
2023/04/07 14:22:18;;;;;;;;;;;12.90;99.90;;;;;;5094988;28;20073;-57
2023/04/07 14:24:44;;;;;;;;;;;12.90;99.90;;;;;;5095213;28;19923;-57
2023/04/07 14:27:10;;;;;;;;;;;12.90;99.90;;;;;;5095348;28;19912;-57
2023/04/07 14:29:36;;;;;;;;;;;13.00;99.90;;;;;;5094924;28;19916;-57
2023/04/07 14:32:02;;;;;;;;;;;13.10;99.90;;;;;;5094955;28;19912;-57
2023/04/07 14:34:28;;;;;;;;;;;13.10;99.90;;;;;;5095165;28;19960;-57